Altdorf, Wisconsin
Current Conditions -  °F | °C
As of 2:46 AM on Sunday 23 Nov 2014 (Local Time) from KISW Reporting Station
Haze Haze  
Wind Chill:   Ceiling: 1400
Heat Index:   Visibility: 3mi
Dew Point:   Wind: 7mph
Humidity: 93%   Direction: 180°S
Pressure: 29.63"   Gusts: NA
Location:  44.4583°N, 90.0009°W
Report Text: KISW 230846Z AUTO 18006KT 3SM BR OVC014 09/08 A2963 RMK AO2 T00890078 $
Loading
Personal Weather Stations






























Interactive Weather Map New forecast layout! Learn more

10-Day Weather Forecast

Advertisements
Track Severe Weather on mobile